createdAt,value
2018-12-27T00:00:28.605Z,1.1
2018-12-27T00:01:18.075Z,1.1
2018-12-27T00:02:08.457Z,1.1
2018-12-27T00:02:58.732Z,1.1
2018-12-27T00:03:48.827Z,1.1
2018-12-27T00:04:38.609Z,1.1
2018-12-27T00:05:28.652Z,1.1
2018-12-27T00:06:18.168Z,1.1
2018-12-27T00:07:08.240Z,1.1
2018-12-27T00:07:58.857Z,1.1
2018-12-27T00:08:48.884Z,1.1
2018-12-27T00:09:38.682Z,1.1
2018-12-27T00:10:29.282Z,1.1
2018-12-27T00:11:18.224Z,1.1
2018-12-27T00:12:09.116Z,1.1
2018-12-27T00:12:59.451Z,1.1
2018-12-27T00:13:49.499Z,1.1
2018-12-27T00:14:39.561Z,1.1
2018-12-27T00:32:53.095Z,1.1
2018-12-27T00:33:43.170Z,1.1
2018-12-27T00:34:33.461Z,1.2
2018-12-27T00:35:22.933Z,1.2
2018-12-27T00:36:13.563Z,1.2
2018-12-27T00:37:03.626Z,1.1
2018-12-27T00:37:53.708Z,1.2
2018-12-27T00:38:43.982Z,1.2
2018-12-27T00:39:33.243Z,1.2
2018-12-27T00:40:23.862Z,1.2
2018-12-27T00:41:13.623Z,1.2
2018-12-27T00:42:03.415Z,1.2
2018-12-27T00:42:54.025Z,1.2
2018-12-27T00:43:44.053Z,1.2
2018-12-27T00:44:33.839Z,1.2
2018-12-27T00:45:24.189Z,1.2
2018-12-27T00:46:13.498Z,1.2
2018-12-27T00:47:03.747Z,1.2
2018-12-27T00:47:53.829Z,1.2
2018-12-27T00:48:44.411Z,1.2
2018-12-27T00:49:34.511Z,1.2
2018-12-27T00:50:23.695Z,1.3
2018-12-27T00:51:14.028Z,1.2
2018-12-27T00:52:04.637Z,1.2
2018-12-27T00:52:54.157Z,1.2
2018-12-27T00:53:44.759Z,1.2
2018-12-27T00:54:34.257Z,1.2
2018-12-27T00:55:24.604Z,1.2
2018-12-27T00:56:14.369Z,1.2
2018-12-27T00:57:04.717Z,1.2
2018-12-27T00:57:55.119Z,1.2
2018-12-27T00:58:45.322Z,1.2
2018-12-27T00:59:35.164Z,1.2
2018-12-27T01:00:24.732Z,1.2
2018-12-27T01:01:14.996Z,1.2
2018-12-27T01:02:05.344Z,1.2
2018-12-27T01:02:55.111Z,1.2
2018-12-27T01:03:45.441Z,1.2
2018-12-27T01:04:35.236Z,1.2
2018-12-27T01:05:24.726Z,1.2
2018-12-27T01:06:15.446Z,1.2
2018-12-27T01:07:05.138Z,1.2
2018-12-27T01:07:55.463Z,1.2
2018-12-27T01:08:46.086Z,1.2
2018-12-27T01:09:35.848Z,1.2
2018-12-27T01:10:25.618Z,1.2
2018-12-27T01:11:15.681Z,1.2
2018-12-27T01:12:06.053Z,1.2
2018-12-27T01:12:55.798Z,1.2
2018-12-27T01:13:45.940Z,1.2
2018-12-27T01:14:36.191Z,1.2
2018-12-27T01:15:26.217Z,1.2
2018-12-27T01:16:16.085Z,1.2
2018-12-27T01:17:05.558Z,1.2
2018-12-27T01:17:56.132Z,1.2
2018-12-27T01:18:46.458Z,1.2
2018-12-27T01:19:35.713Z,1.2
2018-12-27T01:20:26.603Z,1.2
2018-12-27T01:21:16.365Z,1.2
2018-12-27T01:22:06.710Z,1.2
2018-12-27T01:22:56.515Z,1.2
2018-12-27T01:23:47.124Z,1.2
2018-12-27T01:24:36.329Z,1.2
2018-12-27T01:25:26.902Z,1.2
2018-12-27T01:26:17.075Z,1.2
2018-12-27T01:27:07.050Z,1.2
2018-12-27T01:27:57.104Z,1.2
2018-12-27T01:28:47.152Z,1.1
2018-12-27T01:29:37.299Z,1.1
2018-12-27T01:30:26.717Z,1.1
2018-12-27T01:31:17.309Z,1.1
2018-12-27T01:32:06.842Z,1.2
2018-12-27T01:32:57.449Z,1.1
2018-12-27T01:33:47.509Z,1.1
2018-12-27T01:34:37.259Z,1.1
2018-12-27T01:35:27.376Z,1.1
2018-12-27T01:36:17.501Z,1.1
2018-12-27T01:37:07.469Z,1.1
2018-12-27T01:37:56.683Z,1.1
2018-12-27T01:38:47.856Z,1.1
2018-12-27T01:39:37.418Z,1.1
2018-12-27T01:40:27.414Z,1.1
2018-12-27T01:41:17.486Z,1.1
2018-12-27T01:42:07.806Z,1.1
2018-12-27T01:42:58.136Z,1.1
2018-12-27T01:43:47.918Z,1.1
2018-12-27T01:44:37.973Z,1.1
2018-12-27T01:45:28.041Z,1.1
2018-12-27T01:46:18.364Z,1.1
2018-12-27T01:47:08.142Z,1.1
2018-12-27T01:47:57.938Z,1.1
2018-12-27T01:48:48.250Z,1.1
2018-12-27T01:49:38.593Z,1.1
2018-12-27T01:50:28.435Z,1.1
2018-12-27T01:51:18.703Z,1.1
2018-12-27T01:52:07.920Z,1.1
2018-12-27T01:52:58.271Z,1.1
2018-12-27T01:53:48.308Z,1.1
2018-12-27T01:54:38.663Z,1.1
2018-12-27T01:55:28.453Z,1.1
2018-12-27T01:56:18.763Z,1.1
2018-12-27T01:57:08.597Z,1.1
2018-12-27T01:57:58.882Z,1.1
2018-12-27T01:58:48.950Z,1.1
2018-12-27T01:59:38.724Z,1.1
2018-12-27T02:00:29.055Z,1.1
2018-12-27T02:01:19.383Z,1.1
2018-12-27T02:02:09.692Z,1.1
2018-12-27T02:02:59.503Z,1.1
2018-12-27T02:03:49.272Z,1.1
2018-12-27T02:04:39.680Z,1.1
2018-12-27T02:05:29.670Z,1.1
2018-12-27T02:06:19.440Z,1.1
2018-12-27T02:07:09.782Z,1.1
2018-12-27T02:07:59.842Z,1.1
2018-12-27T02:08:49.605Z,1.1
2018-12-27T02:09:39.955Z,1.1
2018-12-27T02:10:29.812Z,1.1
2018-12-27T02:11:20.069Z,1.1
2018-12-27T02:12:10.464Z,1.1
2018-12-27T02:13:00.184Z,1.1
2018-12-27T02:13:49.953Z,1.1
2018-12-27T02:14:40.019Z,1.1
2018-12-27T02:15:30.085Z,1.1
2018-12-27T02:16:20.136Z,1.1
2018-12-27T02:17:10.479Z,1.1
2018-12-27T02:18:00.611Z,1.1
2018-12-27T02:18:50.599Z,1.1
2018-12-27T02:19:40.344Z,1.1
2018-12-27T02:20:30.701Z,1.1
2018-12-27T02:21:20.749Z,1.1
2018-12-27T02:22:10.261Z,1
2018-12-27T02:23:00.868Z,1.1
2018-12-27T02:23:50.373Z,1.1
2018-12-27T02:24:40.713Z,1.1
2018-12-27T02:25:30.766Z,1.1
2018-12-27T02:26:21.079Z,1.1
2018-12-27T02:27:11.155Z,1.1
2018-12-27T02:28:00.931Z,1.1
2018-12-27T02:28:50.452Z,1
2018-12-27T02:29:41.562Z,1.1
2018-12-27T02:30:31.423Z,1.1
2018-12-27T02:31:21.552Z,1.1
2018-12-27T02:32:11.528Z,1.1
2018-12-27T02:33:01.286Z,1
2018-12-27T02:33:51.597Z,1.1
2018-12-27T02:34:41.662Z,1.1
2018-12-27T02:35:31.729Z,1.1
2018-12-27T02:36:21.515Z,1
2018-12-27T02:37:11.588Z,1
2018-12-27T02:38:01.638Z,1
2018-12-27T02:38:51.968Z,1.1
2018-12-27T02:39:42.950Z,1
2018-12-27T02:40:32.075Z,1
2018-12-27T02:41:21.611Z,1
2018-12-27T02:42:11.932Z,1
2018-12-27T02:43:02.238Z,1
2018-12-27T02:43:52.298Z,1
2018-12-27T02:44:41.542Z,1
2018-12-27T02:45:32.139Z,1
2018-12-27T02:46:22.210Z,1
2018-12-27T02:47:12.282Z,1
2018-12-27T02:48:02.340Z,1
2018-12-27T02:48:52.372Z,1
2018-12-27T02:49:42.417Z,1
2018-12-27T02:50:32.802Z,1
2018-12-27T02:51:22.554Z,1
2018-12-27T02:52:12.365Z,1
2018-12-27T02:53:02.370Z,1
2018-12-27T02:53:52.449Z,1
2018-12-27T02:54:43.042Z,1
2018-12-27T02:55:33.094Z,1
2018-12-27T02:56:23.152Z,0.9
2018-12-27T02:57:12.939Z,1
2018-12-27T02:58:02.725Z,1
2018-12-27T02:58:53.057Z,1
2018-12-27T02:59:42.909Z,1
2018-12-27T03:00:33.166Z,1
2018-12-27T03:01:22.472Z,1
2018-12-27T03:02:13.271Z,1
2018-12-27T03:03:03.589Z,1
2018-12-27T03:03:53.990Z,0.9
2018-12-27T03:04:43.746Z,0.9
2018-12-27T03:05:33.747Z,0.9
2018-12-27T03:06:23.581Z,0.9
2018-12-27T03:07:13.914Z,0.9
2018-12-27T03:08:03.957Z,0.9
2018-12-27T03:08:53.744Z,0.9
2018-12-27T03:09:44.106Z,0.9
2018-12-27T03:10:33.846Z,0.9
2018-12-27T03:11:23.368Z,0.9
2018-12-27T03:12:13.989Z,0.9
2018-12-27T03:13:03.796Z,0.9
2018-12-27T03:13:53.818Z,0.9
2018-12-27T03:14:43.953Z,0.9
2018-12-27T03:15:34.236Z,0.9
2018-12-27T03:16:24.539Z,0.9
2018-12-27T03:17:14.475Z,0.9
2018-12-27T03:18:03.891Z,0.9
2018-12-27T03:18:54.210Z,0.9
2018-12-27T03:19:44.295Z,0.9
2018-12-27T03:20:34.116Z,0.9
2018-12-27T03:21:24.141Z,0.9
2018-12-27T03:22:14.166Z,0.9
2018-12-27T03:23:04.433Z,0.9
2018-12-27T03:23:54.796Z,0.9
2018-12-27T03:24:44.339Z,0.9
2018-12-27T03:25:34.130Z,0.9
2018-12-27T03:26:24.846Z,0.9
2018-12-27T03:27:14.555Z,0.9
2018-12-27T03:28:04.867Z,0.9
2018-12-27T03:28:54.444Z,0.9
2018-12-27T03:29:44.958Z,0.9
2018-12-27T03:30:34.516Z,0.9
2018-12-27T03:31:24.844Z,0.9
2018-12-27T03:32:15.171Z,0.9
2018-12-27T03:33:05.246Z,0.9
2018-12-27T03:33:55.504Z,0.9
2018-12-27T03:34:45.317Z,0.9
2018-12-27T03:35:35.098Z,0.9
2018-12-27T03:36:25.438Z,0.9
2018-12-27T03:37:15.338Z,0.9
2018-12-27T03:38:05.541Z,0.9
2018-12-27T03:38:55.303Z,0.9
2018-12-27T03:39:45.649Z,0.9
2018-12-27T03:40:35.426Z,0.8
2018-12-27T03:41:25.757Z,0.9
2018-12-27T03:42:15.254Z,0.9
2018-12-27T03:43:05.629Z,0.8
2018-12-27T03:43:55.397Z,0.9
2018-12-27T03:44:46.002Z,0.8
2018-12-27T03:45:36.045Z,0.9
2018-12-27T03:46:25.542Z,0.8
2018-12-27T03:47:15.886Z,0.8
2018-12-27T03:48:05.944Z,0.8
2018-12-27T03:48:56.264Z,0.9
2018-12-27T03:49:46.537Z,0.9
2018-12-27T03:50:35.766Z,0.8
2018-12-27T03:51:25.902Z,0.8
2018-12-27T03:52:16.226Z,0.8
2018-12-27T03:53:06.280Z,0.8
2018-12-27T03:53:56.816Z,0.9
2018-12-27T03:54:46.676Z,0.8
2018-12-27T03:55:36.182Z,0.8
2018-12-27T03:56:26.316Z,0.8
2018-12-27T03:57:16.553Z,0.8
2018-12-27T03:58:06.813Z,0.8
2018-12-27T03:58:56.681Z,0.8
2018-12-27T03:59:47.039Z,0.8
2018-12-27T04:00:37.618Z,0.8
2018-12-27T04:01:27.139Z,0.9
2018-12-27T04:02:17.478Z,0.8
2018-12-27T04:03:07.495Z,0.8
2018-12-27T04:04:03.168Z,0.8
2018-12-27T04:04:47.346Z,0.9
2018-12-27T04:05:37.918Z,0.8
2018-12-27T04:06:27.203Z,0.8
2018-12-27T04:07:17.728Z,0.8
2018-12-27T04:08:07.820Z,0.8
2018-12-27T04:08:57.370Z,0.9
2018-12-27T04:09:47.426Z,0.8
2018-12-27T04:10:37.755Z,0.8
2018-12-27T04:11:28.120Z,0.8
2018-12-27T04:12:18.368Z,0.8
2018-12-27T04:13:07.846Z,0.9
2018-12-27T04:13:58.201Z,0.8
2018-12-27T04:14:47.699Z,0.8
2018-12-27T04:15:38.576Z,0.8
2018-12-27T04:16:28.362Z,0.8
2018-12-27T04:17:18.835Z,0.8
2018-12-27T04:18:08.768Z,0.8
2018-12-27T04:18:58.807Z,0.8
2018-12-27T04:19:48.600Z,0.8
2018-12-27T04:20:38.651Z,0.8
2018-12-27T04:21:28.719Z,0.9
2018-12-27T04:22:18.767Z,0.8
2018-12-27T04:23:08.814Z,0.9
2018-12-27T04:23:58.620Z,0.8
2018-12-27T04:24:49.210Z,0.8
2018-12-27T04:25:38.718Z,0.8
2018-12-27T04:26:28.485Z,0.8
2018-12-27T04:27:19.354Z,0.8
2018-12-27T04:28:08.894Z,0.8
2018-12-27T04:28:59.208Z,0.8
2018-12-27T04:29:49.019Z,0.8
2018-12-27T04:30:39.347Z,0.8
2018-12-27T04:31:29.664Z,0.8
2018-12-27T04:32:19.186Z,0.8
2018-12-27T04:33:09.761Z,0.8
2018-12-27T04:33:59.822Z,0.8
2018-12-27T04:34:49.640Z,0.8
2018-12-27T04:35:39.973Z,0.8
2018-12-27T04:36:29.735Z,0.8
2018-12-27T04:37:20.070Z,0.8
2018-12-27T04:38:09.586Z,0.8
2018-12-27T04:39:00.172Z,0.8
2018-12-27T04:39:49.674Z,0.8
2018-12-27T04:40:40.591Z,0.8
2018-12-27T04:41:30.190Z,0.8
2018-12-27T04:42:20.438Z,0.8
2018-12-27T04:43:10.478Z,0.8
2018-12-27T04:44:00.586Z,0.8
2018-12-27T04:44:50.585Z,0.8
2018-12-27T05:02:09.133Z,0.8
2018-12-27T05:02:59.300Z,0.8
2018-12-27T05:03:49.150Z,0.8
2018-12-27T05:04:39.436Z,0.8
2018-12-27T05:05:29.473Z,0.8
2018-12-27T05:06:19.280Z,0.8
2018-12-27T05:07:09.323Z,0.8
2018-12-27T05:08:01.193Z,0.8
2018-12-27T05:08:49.461Z,0.8
2018-12-27T05:09:39.481Z,0.8
2018-12-27T05:10:29.595Z,0.8
2018-12-27T05:11:19.979Z,0.8
2018-12-27T05:12:09.394Z,0.8
2018-12-27T05:12:59.767Z,0.8
2018-12-27T05:13:49.761Z,0.8
2018-12-27T05:14:40.134Z,0.8
2018-12-27T05:15:29.893Z,0.8
2018-12-27T05:16:19.396Z,0.7
2018-12-27T05:17:10.287Z,0.7
2018-12-27T05:18:00.344Z,0.7
2018-12-27T05:18:50.215Z,0.7
2018-12-27T05:19:40.176Z,0.7
2018-12-27T05:20:30.026Z,0.7
2018-12-27T05:21:20.309Z,0.7
2018-12-27T05:22:09.791Z,0.7
2018-12-27T05:23:00.968Z,0.7
2018-12-27T05:23:50.204Z,0.7
2018-12-27T05:24:40.795Z,0.7
2018-12-27T05:25:30.328Z,0.7
2018-12-27T05:26:20.628Z,0.7
2018-12-27T05:27:10.695Z,0.7
2018-12-27T05:28:00.746Z,0.7
2018-12-27T05:28:51.149Z,0.6
2018-12-27T05:29:40.293Z,0.7
2018-12-27T05:30:30.440Z,0.7
2018-12-27T05:31:20.425Z,0.7
2018-12-27T05:32:11.287Z,0.7
2018-12-27T05:33:01.415Z,0.7
2018-12-27T05:33:51.416Z,0.6
2018-12-27T05:34:41.470Z,0.6
2018-12-27T05:35:31.251Z,0.6
2018-12-27T05:36:21.065Z,0.6
2018-12-27T05:37:11.722Z,0.6
2018-12-27T05:38:01.421Z,0.6
2018-12-27T05:38:51.483Z,0.6
2018-12-27T05:39:41.807Z,0.6
2018-12-27T05:40:31.592Z,0.6
2018-12-27T05:41:21.917Z,0.6
2018-12-27T05:42:11.694Z,0.6
2018-12-27T05:43:02.048Z,0.6
2018-12-27T05:43:52.114Z,0.6
2018-12-27T05:44:42.142Z,0.6
2018-12-27T05:45:31.927Z,0.6
2018-12-27T05:46:21.424Z,0.6
2018-12-27T05:47:12.314Z,0.6
2018-12-27T05:48:02.094Z,0.6
2018-12-27T05:48:52.164Z,0.6
2018-12-27T05:49:42.209Z,0.6
2018-12-27T05:50:32.542Z,0.6
2018-12-27T05:51:22.601Z,0.6
2018-12-27T05:52:12.116Z,0.6
2018-12-27T05:53:02.446Z,0.6
2018-12-27T05:53:52.486Z,0.6
2018-12-27T05:54:42.544Z,0.6
2018-12-27T05:55:36.222Z,0.6
2018-12-27T05:56:22.385Z,0.6
2018-12-27T05:57:13.011Z,0.6
2018-12-27T05:58:03.041Z,0.6
2018-12-27T05:58:52.558Z,0.6
2018-12-27T05:59:43.198Z,0.6
2018-12-27T06:00:32.963Z,0.6
2018-12-27T06:01:23.298Z,0.6
2018-12-27T06:02:13.051Z,0.6
2018-12-27T06:03:03.397Z,0.6
2018-12-27T06:03:53.169Z,0.6
2018-12-27T06:04:43.238Z,0.6
2018-12-27T06:05:33.280Z,0.6
2018-12-27T06:06:23.615Z,0.6
2018-12-27T06:07:13.676Z,0.5
2018-12-27T06:08:03.197Z,0.5
2018-12-27T06:08:53.514Z,0.5
2018-12-27T06:09:43.578Z,0.6
2018-12-27T06:10:33.636Z,0.5
2018-12-27T06:11:23.957Z,0.6
2018-12-27T06:12:14.025Z,0.5
2018-12-27T06:13:03.528Z,0.5
2018-12-27T06:13:53.848Z,0.5
2018-12-27T06:14:43.335Z,0.5
2018-12-27T06:15:34.280Z,0.5
2018-12-27T06:16:23.820Z,0.5
2018-12-27T06:17:13.795Z,0.5
2018-12-27T06:18:04.128Z,0.5
2018-12-27T06:18:54.432Z,0.5
2018-12-27T06:19:44.305Z,0.5
2018-12-27T06:20:34.552Z,0.5
2018-12-27T06:21:24.353Z,0.5
2018-12-27T06:22:14.477Z,0.5
2018-12-27T06:23:04.752Z,0.5
2018-12-27T06:23:55.074Z,0.5
2018-12-27T06:24:44.564Z,0.5
2018-12-27T06:25:34.942Z,0.5
2018-12-27T06:26:24.980Z,0.5
2018-12-27T06:27:14.812Z,0.6
2018-12-27T06:28:04.802Z,0.5
2018-12-27T06:28:55.402Z,0.5
2018-12-27T06:29:45.222Z,0.6
2018-12-27T06:30:35.302Z,0.5
2018-12-27T06:31:25.034Z,0.5
2018-12-27T06:32:15.434Z,0.5
2018-12-27T06:33:05.447Z,0.6
2018-12-27T06:33:54.967Z,0.6
2018-12-27T06:34:45.262Z,0.6
2018-12-27T06:35:35.599Z,0.6
2018-12-27T06:36:25.129Z,0.6
2018-12-27T06:37:15.984Z,0.6
2018-12-27T06:38:05.499Z,0.6
2018-12-27T06:38:55.566Z,0.6
2018-12-27T06:39:45.591Z,0.6
2018-12-27T06:40:35.387Z,0.6
2018-12-27T06:41:25.719Z,0.6
2018-12-27T06:42:15.854Z,0.6
2018-12-27T06:43:05.835Z,0.6
2018-12-27T06:43:55.906Z,0.6
2018-12-27T06:44:46.221Z,0.6
2018-12-27T06:45:36.066Z,0.6
2018-12-27T06:46:26.048Z,0.6
2018-12-27T06:47:16.389Z,0.6
2018-12-27T06:48:06.163Z,0.6
2018-12-27T06:48:56.500Z,0.6
2018-12-27T06:49:46.013Z,0.6
2018-12-27T06:50:36.583Z,0.7
2018-12-27T06:51:26.130Z,0.6
2018-12-27T06:52:16.453Z,0.7
2018-12-27T06:53:06.263Z,0.7
2018-12-27T06:53:56.565Z,0.7
2018-12-27T06:54:46.331Z,0.7
2018-12-27T06:55:36.655Z,0.7
2018-12-27T06:56:27.010Z,0.8
2018-12-27T06:57:17.065Z,0.8
2018-12-27T06:58:06.297Z,0.7
2018-12-27T06:58:56.906Z,0.8
2018-12-27T06:59:47.245Z,0.8
2018-12-27T07:00:37.521Z,0.8
2018-12-27T07:01:27.343Z,0.8
2018-12-27T07:02:16.844Z,0.8
2018-12-27T07:03:07.473Z,0.8
2018-12-27T07:03:57.509Z,0.8
2018-12-27T07:04:51.420Z,0.9
2018-12-27T07:05:37.855Z,0.9
2018-12-27T07:06:27.430Z,0.9
2018-12-27T07:07:17.462Z,0.9
2018-12-27T07:08:07.812Z,0.9
2018-12-27T07:08:57.589Z,0.9
2018-12-27T07:09:47.363Z,0.9
2018-12-27T07:10:37.970Z,0.9
2018-12-27T07:11:27.799Z,1
2018-12-27T07:12:17.263Z,1
2018-12-27T07:13:07.868Z,1
2018-12-27T07:13:57.648Z,1
2018-12-27T07:14:47.962Z,1
2018-12-27T07:15:38.418Z,1.1
2018-12-27T07:16:28.108Z,1.1
2018-12-27T07:17:17.880Z,1.1
2018-12-27T07:18:07.937Z,1.1
2018-12-27T07:19:00.281Z,1.1
2018-12-27T07:19:48.312Z,1.2
2018-12-27T07:20:38.668Z,1.2
2018-12-27T07:21:28.153Z,1.2
2018-12-27T07:22:18.490Z,1.2
2018-12-27T07:23:08.845Z,1.3
2018-12-27T07:23:58.323Z,1.3
2018-12-27T07:24:48.655Z,1.3
2018-12-27T07:25:39.000Z,1.3
2018-12-27T07:26:28.482Z,1.3
2018-12-27T07:27:18.260Z,1.4
2018-12-27T07:28:08.632Z,1.4
2018-12-27T07:28:59.247Z,1.4
2018-12-27T07:29:48.724Z,1.4
2018-12-27T07:30:39.325Z,1.5
2018-12-27T07:31:28.936Z,1.5
2018-12-27T07:32:19.170Z,1.6
2018-12-27T07:33:08.937Z,1.6
2018-12-27T07:33:59.260Z,1.6
2018-12-27T07:34:56.989Z,1.6
2018-12-27T07:35:39.117Z,1.7
2018-12-27T07:36:29.165Z,1.8
2018-12-27T07:37:19.783Z,1.8
2018-12-27T07:38:09.817Z,1.9
2018-12-27T07:38:59.898Z,1.9
2018-12-27T07:39:49.939Z,1.9
2018-12-27T07:40:40.327Z,2
2018-12-27T07:41:29.777Z,2.1
2018-12-27T07:42:20.110Z,2.1
2018-12-27T07:43:09.893Z,2.2
2018-12-27T07:44:00.286Z,2.3
2018-12-27T07:44:50.001Z,2.3
2018-12-27T07:45:39.512Z,2.3
2018-12-27T07:46:29.881Z,2.4
2018-12-27T07:47:20.177Z,2.4
2018-12-27T07:48:10.506Z,2.5
2018-12-27T07:49:00.561Z,2.6
2018-12-27T07:49:50.611Z,2.6
2018-12-27T07:50:40.673Z,2.7
2018-12-27T07:51:30.740Z,2.8
2018-12-27T07:52:20.866Z,2.8
2018-12-27T07:53:10.831Z,2.8
2018-12-27T07:54:01.147Z,2.9
2018-12-27T07:54:50.946Z,2.9
2018-12-27T07:55:40.461Z,3
2018-12-27T07:56:31.070Z,3.1
2018-12-27T07:57:21.418Z,3.1
2018-12-27T07:58:11.168Z,3.2
2018-12-27T07:59:01.249Z,3.3
2018-12-27T07:59:51.001Z,3.3
2018-12-27T08:00:41.110Z,3.4
2018-12-27T08:01:31.108Z,3.4
2018-12-27T08:02:20.363Z,3.5
2018-12-27T08:03:11.230Z,3.6
2018-12-27T08:04:01.290Z,3.6
2018-12-27T08:04:51.656Z,3.7
2018-12-27T08:05:41.130Z,3.8
2018-12-27T08:06:31.461Z,3.9
2018-12-27T08:07:21.913Z,3.9
2018-12-27T08:08:11.852Z,3.9
2018-12-27T08:09:01.347Z,4
2018-12-27T08:09:51.456Z,4.1
2018-12-27T08:10:41.242Z,4.1
2018-12-27T08:11:31.795Z,4.3
2018-12-27T08:12:22.185Z,4.3
2018-12-27T08:13:11.910Z,4.4
2018-12-27T08:14:01.999Z,4.4
2018-12-27T08:14:52.322Z,4.5
2018-12-27T08:15:42.362Z,4.6
2018-12-27T08:16:32.402Z,4.6
2018-12-27T08:17:22.457Z,4.7
2018-12-27T08:18:12.239Z,4.8
2018-12-27T08:19:02.589Z,4.9
2018-12-27T08:19:52.679Z,4.9
2018-12-27T08:20:41.872Z,5
2018-12-27T08:21:32.472Z,5.1
2018-12-27T08:22:22.807Z,5.2
2018-12-27T08:23:12.335Z,5.3
2018-12-27T08:24:02.706Z,5.4
2018-12-27T08:24:52.971Z,5.4
2018-12-27T08:25:42.758Z,5.5
2018-12-27T08:26:33.080Z,5.6
2018-12-27T08:27:22.916Z,5.7
2018-12-27T08:28:12.651Z,5.8
2018-12-27T08:29:02.994Z,5.9
2018-12-27T08:29:53.308Z,5.9
2018-12-27T08:30:43.356Z,6.1
2018-12-27T08:31:33.424Z,6.1
2018-12-27T08:32:23.468Z,6.2
2018-12-27T08:33:12.984Z,6.3
2018-12-27T08:34:03.362Z,6.3
2018-12-27T08:34:53.365Z,6.4
2018-12-27T08:35:43.429Z,6.5
2018-12-27T08:36:33.761Z,6.6
2018-12-27T08:37:23.809Z,6.6
2018-12-27T08:38:13.893Z,6.7
2018-12-27T08:39:03.656Z,6.8
2018-12-27T08:39:53.710Z,6.8
2018-12-27T08:40:43.751Z,6.9
2018-12-27T08:41:33.547Z,6.9
2018-12-27T08:42:24.161Z,7
2018-12-27T08:43:13.960Z,7.1
2018-12-27T08:44:03.703Z,7.1
2018-12-27T08:44:54.031Z,7.1
2018-12-27T08:45:44.380Z,7.1
2018-12-27T08:46:34.169Z,7.1
2018-12-27T08:47:26.210Z,7.2
2018-12-27T08:48:13.722Z,7.2
2018-12-27T08:49:04.602Z,7.2
2018-12-27T08:49:54.372Z,7.3
2018-12-27T08:50:44.154Z,7.3
2018-12-27T08:51:34.758Z,7.3
2018-12-27T08:52:23.782Z,7.3
2018-12-27T08:53:14.637Z,7.3
2018-12-27T08:54:04.928Z,7.4
2018-12-27T08:54:54.977Z,7.4
2018-12-27T08:55:44.814Z,7.4
2018-12-27T08:56:35.087Z,7.4
2018-12-27T08:57:25.167Z,7.4
2018-12-27T08:58:15.207Z,7.4
2018-12-27T08:59:05.267Z,7.4
2018-12-27T08:59:54.779Z,7.4
2018-12-27T09:00:45.071Z,7.4
2018-12-27T09:16:32.991Z,7.6
2018-12-27T09:17:22.218Z,7.6
2018-12-27T09:18:12.633Z,7.7
2018-12-27T09:19:02.904Z,7.8
2018-12-27T09:19:52.623Z,7.8
2018-12-27T09:20:43.026Z,7.8
2018-12-27T09:21:32.241Z,7.9
2018-12-27T09:22:22.587Z,7.9
2018-12-27T09:23:13.183Z,7.8
2018-12-27T09:24:03.185Z,7.8
2018-12-27T09:24:52.680Z,7.8
2018-12-27T09:25:43.549Z,7.8
2018-12-27T09:26:33.048Z,7.8
2018-12-27T09:27:23.150Z,7.9
2018-12-27T09:28:12.914Z,7.9
2018-12-27T09:29:03.532Z,7.9
2018-12-27T09:29:53.293Z,8
2018-12-27T09:30:43.200Z,8
2018-12-27T09:31:33.697Z,8
2018-12-27T09:32:23.756Z,8
2018-12-27T09:33:13.545Z,8.1
2018-12-27T09:34:03.590Z,8.1
2018-12-27T09:34:53.451Z,8.1
2018-12-27T09:35:43.517Z,8.1
2018-12-27T09:36:34.033Z,8.1
2018-12-27T09:37:23.824Z,8.1
2018-12-27T09:38:13.316Z,8.2
2018-12-27T09:39:03.926Z,8.2
2018-12-27T09:39:53.771Z,8.3
2018-12-27T09:40:43.511Z,8.3
2018-12-27T09:41:34.139Z,8.3
2018-12-27T09:42:23.658Z,8.4
2018-12-27T09:43:13.719Z,8.4
2018-12-27T09:44:04.258Z,8.4
2018-12-27T09:44:54.594Z,8.4
2018-12-27T09:45:44.158Z,8.5
2018-12-27T09:46:34.222Z,8.5
2018-12-27T09:47:24.760Z,8.6
2018-12-27T09:48:13.795Z,8.6
2018-12-27T09:49:04.124Z,8.6
2018-12-27T09:49:54.165Z,8.6
2018-12-27T09:50:44.506Z,8.7
2018-12-27T09:51:35.045Z,8.7
2018-12-27T09:52:24.644Z,8.8
2018-12-27T09:53:14.665Z,8.8
2018-12-27T09:54:04.465Z,8.8
2018-12-27T09:54:54.270Z,8.8
2018-12-27T09:55:44.869Z,8.8
2018-12-27T09:56:34.905Z,8.9
2018-12-27T09:57:25.167Z,8.9
2018-12-27T09:58:15.018Z,8.9
2018-12-27T09:59:04.810Z,8.9
2018-12-27T09:59:54.859Z,8.9
2018-12-27T10:00:45.202Z,8.9
2018-12-27T10:01:35.245Z,8.9
2018-12-27T10:02:25.227Z,8.9
2018-12-27T10:03:15.092Z,8.9
2018-12-27T10:04:05.135Z,8.9
2018-12-27T10:04:55.475Z,8.9
2018-12-27T10:05:45.247Z,8.9
2018-12-27T10:06:35.314Z,8.8
2018-12-27T10:07:25.370Z,8.8
2018-12-27T10:08:15.150Z,8.8
2018-12-27T10:09:05.209Z,8.8
2018-12-27T10:09:55.539Z,8.8
2018-12-27T10:10:46.355Z,8.7
2018-12-27T10:11:35.987Z,8.7
2018-12-27T10:12:26.179Z,8.7
2018-12-27T10:13:16.507Z,8.7
2018-12-27T10:14:06.589Z,8.7
2018-12-27T10:14:56.156Z,8.6
2018-12-27T10:15:45.922Z,8.6
2018-12-27T10:16:36.747Z,8.6
2018-12-27T10:17:26.807Z,8.6
2018-12-27T10:18:16.599Z,8.6
2018-12-27T10:19:06.653Z,8.6
2018-12-27T10:19:56.697Z,8.5
2018-12-27T10:20:47.039Z,8.5
2018-12-27T10:21:37.082Z,8.4
2018-12-27T10:22:26.664Z,8.4
2018-12-27T10:23:17.461Z,8.4
2018-12-27T10:24:06.518Z,8.4
2018-12-27T10:24:57.302Z,8.4
2018-12-27T10:25:47.361Z,8.4
2018-12-27T10:26:37.173Z,8.4
2018-12-27T10:27:27.209Z,8.4
2018-12-27T10:28:17.106Z,8.4
2018-12-27T10:29:07.599Z,8.3
2018-12-27T10:29:57.111Z,8.3
2018-12-27T10:30:47.144Z,8.3
2018-12-27T10:31:37.215Z,8.3
2018-12-27T10:32:27.813Z,8.3
2018-12-27T10:33:17.624Z,8.3
2018-12-27T10:34:07.651Z,8.2
2018-12-27T10:34:58.011Z,8.2
2018-12-27T10:35:48.056Z,8.1
2018-12-27T10:36:37.806Z,8.1
2018-12-27T10:37:28.156Z,8.1
2018-12-27T10:38:18.476Z,8.1
2018-12-27T10:39:08.011Z,8.1
2018-12-27T10:39:58.040Z,8.1
2018-12-27T10:40:48.109Z,8.1
2018-12-27T10:41:38.433Z,8.1
2018-12-27T10:42:28.203Z,8.1
2018-12-27T10:43:18.530Z,8.1
2018-12-27T10:44:08.330Z,8.1
2018-12-27T10:44:58.380Z,8.1
2018-12-27T10:45:48.161Z,8.1
2018-12-27T10:46:38.504Z,8.1
2018-12-27T10:47:28.695Z,8.1
2018-12-27T10:48:18.887Z,8.1
2018-12-27T10:49:08.998Z,8
2018-12-27T10:49:58.726Z,8
2018-12-27T10:50:48.512Z,8
2018-12-27T10:51:38.849Z,8
2018-12-27T10:52:29.545Z,8
2018-12-27T10:53:18.950Z,8
2018-12-27T10:54:09.517Z,8
2018-12-27T10:54:59.317Z,8.1
2018-12-27T10:55:49.412Z,8
2018-12-27T10:56:39.172Z,8
2018-12-27T10:57:29.192Z,8
2018-12-27T10:58:19.280Z,8.1
2018-12-27T10:59:09.167Z,8.1
2018-12-27T10:59:59.678Z,8.1
2018-12-27T11:00:49.720Z,8.1
2018-12-27T11:01:39.777Z,8.1
2018-12-27T11:02:29.885Z,8.1
2018-12-27T11:03:19.612Z,8.1
2018-12-27T11:04:09.744Z,8.1
2018-12-27T11:05:00.007Z,8.1
2018-12-27T11:05:50.524Z,8.1
2018-12-27T11:06:40.127Z,8.1
2018-12-27T11:07:30.181Z,8.1
2018-12-27T11:08:19.392Z,8.1
2018-12-27T11:09:10.069Z,8.1
2018-12-27T11:10:00.174Z,8.1
2018-12-27T11:10:50.128Z,8.1
2018-12-27T11:11:40.181Z,8.1
2018-12-27T11:12:30.513Z,8.1
2018-12-27T11:13:20.574Z,8.1
2018-12-27T11:14:10.667Z,8.1
2018-12-27T11:15:00.751Z,8.1
2018-12-27T11:15:50.738Z,8.1
2018-12-27T11:16:40.815Z,8.1
2018-12-27T11:17:30.572Z,8.1
2018-12-27T11:18:20.905Z,8.1
2018-12-27T11:19:10.710Z,8.2
2018-12-27T11:20:00.742Z,8.2
2018-12-27T11:20:51.103Z,8.3
2018-12-27T11:21:41.119Z,8.2
2018-12-27T11:22:31.187Z,8.3
2018-12-27T11:23:21.247Z,8.3
2018-12-27T11:24:11.312Z,8.3
2018-12-27T11:25:01.072Z,8.3
2018-12-27T11:25:51.432Z,8.3
2018-12-27T11:26:41.469Z,8.4
2018-12-27T11:27:31.534Z,8.4
2018-12-27T11:28:21.004Z,8.4
2018-12-27T11:29:11.366Z,8.4
2018-12-27T11:30:01.426Z,8.4
2018-12-27T11:30:51.205Z,8.5
2018-12-27T11:31:41.551Z,8.6
2018-12-27T11:32:31.584Z,8.6
2018-12-27T11:33:21.672Z,8.6
2018-12-27T11:34:11.722Z,8.6
2018-12-27T11:35:01.868Z,8.6
2018-12-27T11:35:58.068Z,8.6
2018-12-27T11:36:41.866Z,8.6
2018-12-27T11:37:32.202Z,8.6
2018-12-27T11:38:21.989Z,8.7
2018-12-27T11:39:11.476Z,8.7
2018-12-27T11:40:02.098Z,8.6
2018-12-27T11:40:52.379Z,8.7
2018-12-27T11:41:42.208Z,8.6
2018-12-27T11:42:32.523Z,8.6
2018-12-27T11:43:22.589Z,8.6
2018-12-27T11:44:12.088Z,8.6
2018-12-27T11:45:02.703Z,8.6
2018-12-27T11:45:53.015Z,8.6
2018-12-27T11:46:42.543Z,8.6
2018-12-27T11:47:32.878Z,8.6
2018-12-27T11:48:22.668Z,8.5
2018-12-27T11:49:12.729Z,8.5
2018-12-27T11:50:36.473Z,8.4
2018-12-27T11:51:26.067Z,8.4
2018-12-27T11:52:16.595Z,8.4
2018-12-27T11:53:06.377Z,8.4
2018-12-27T11:53:56.695Z,8.4
2018-12-27T11:54:46.547Z,8.3
2018-12-27T11:55:36.827Z,8.3
2018-12-27T11:56:26.326Z,8.3
2018-12-27T11:57:16.365Z,8.3
2018-12-27T11:58:06.709Z,8.3
2018-12-27T11:58:56.499Z,8.2
2018-12-27T11:59:46.540Z,8.2
2018-12-27T12:00:36.879Z,8.2
2018-12-27T12:01:27.224Z,8.1
2018-12-27T12:02:17.000Z,8.1
2018-12-27T12:03:06.506Z,8.1
2018-12-27T12:03:57.107Z,8.1
2018-12-27T12:04:47.159Z,8.1
2018-12-27T12:05:36.724Z,8.1
2018-12-27T12:06:26.996Z,8.1
2018-12-27T12:07:17.606Z,8.1
2018-12-27T12:08:07.394Z,8
2018-12-27T12:08:57.446Z,8
2018-12-27T12:09:47.289Z,7.9
2018-12-27T12:11:28.601Z,7.9
2018-12-27T12:12:18.665Z,7.9
2018-12-27T12:13:08.990Z,7.9
2018-12-27T12:13:58.766Z,7.9
2018-12-27T12:14:48.551Z,7.8
2018-12-27T12:15:39.216Z,7.8
2018-12-27T12:16:28.981Z,7.8
2018-12-27T12:17:18.731Z,7.8
2018-12-27T12:18:09.331Z,7.8
2018-12-27T12:18:58.563Z,7.7
2018-12-27T12:19:48.886Z,7.7
2018-12-27T12:20:39.502Z,7.7
2018-12-27T12:21:29.569Z,7.7
2018-12-27T12:22:19.600Z,7.7
2018-12-27T12:23:09.398Z,7.6